sensor_id;sensor_type;location;lat;lon;timestamp;pressure;altitude;pressure_sealevel;temperature;humidity
3598;BME280;1813;52.016;8.714;2022-11-23T00:01:44;-16261.94;;;-139.71;70.72
3598;BME280;1813;52.016;8.714;2022-11-23T00:04:18;-16261.94;;;-139.71;70.57
3598;BME280;1813;52.016;8.714;2022-11-23T00:06:52;-16261.94;;;-139.71;70.38
3598;BME280;1813;52.016;8.714;2022-11-23T00:09:25;-16261.94;;;-139.71;70.13
3598;BME280;1813;52.016;8.714;2022-11-23T00:11:59;-16261.94;;;-139.71;69.94
3598;BME280;1813;52.016;8.714;2022-11-23T00:14:33;-16261.94;;;-139.71;69.60
3598;BME280;1813;52.016;8.714;2022-11-23T00:17:10;-16261.94;;;-139.71;69.69
3598;BME280;1813;52.016;8.714;2022-11-23T00:19:43;-16261.94;;;-139.71;69.56
3598;BME280;1813;52.016;8.714;2022-11-23T00:22:17;-16261.94;;;-139.71;69.91
3598;BME280;1813;52.016;8.714;2022-11-23T00:24:51;-16261.94;;;-139.71;69.78
3598;BME280;1813;52.016;8.714;2022-11-23T00:27:25;-16261.94;;;-139.71;69.62
3598;BME280;1813;52.016;8.714;2022-11-23T00:29:59;-16261.94;;;-139.71;69.78
3598;BME280;1813;52.016;8.714;2022-11-23T00:32:36;-16261.94;;;-139.71;69.49
3598;BME280;1813;52.016;8.714;2022-11-23T00:35:11;-16261.94;;;-139.71;69.42
3598;BME280;1813;52.016;8.714;2022-11-23T00:37:44;-16261.94;;;-139.71;69.33
3598;BME280;1813;52.016;8.714;2022-11-23T00:40:18;-16261.94;;;-139.71;69.69
3598;BME280;1813;52.016;8.714;2022-11-23T00:42:52;-16261.94;;;-139.71;69.75
3598;BME280;1813;52.016;8.714;2022-11-23T00:45:26;-16261.94;;;-139.71;69.78
3598;BME280;1813;52.016;8.714;2022-11-23T00:48:03;-16261.94;;;-139.71;69.93
3598;BME280;1813;52.016;8.714;2022-11-23T00:50:38;-16261.94;;;-139.71;69.98
3598;BME280;1813;52.016;8.714;2022-11-23T00:53:11;-16261.94;;;-139.71;70.24
3598;BME280;1813;52.016;8.714;2022-11-23T00:55:50;-16261.94;;;-139.71;70.46
3598;BME280;1813;52.016;8.714;2022-11-23T00:58:24;-16261.94;;;-139.71;70.65
3598;BME280;1813;52.016;8.714;2022-11-23T01:01:03;-16261.94;;;-139.71;70.90
3598;BME280;1813;52.016;8.714;2022-11-23T01:03:43;-16261.94;;;-139.71;71.22
3598;BME280;1813;52.016;8.714;2022-11-23T01:06:19;-16261.94;;;-139.71;71.65
3598;BME280;1813;52.016;8.714;2022-11-23T01:08:56;-16261.94;;;-139.71;71.75
3598;BME280;1813;52.016;8.714;2022-11-23T01:11:31;-16261.94;;;-139.71;72.15
3598;BME280;1813;52.016;8.714;2022-11-23T01:14:05;-16261.94;;;-139.71;72.51
3598;BME280;1813;52.016;8.714;2022-11-23T01:16:39;-16261.94;;;-139.71;72.91
3598;BME280;1813;52.016;8.714;2022-11-23T01:19:18;-16261.94;;;-139.71;73.36
3598;BME280;1813;52.016;8.714;2022-11-23T01:21:53;-16261.94;;;-139.71;73.78
3598;BME280;1813;52.016;8.714;2022-11-23T01:24:29;-16261.94;;;-139.71;74.11
3598;BME280;1813;52.016;8.714;2022-11-23T01:27:04;-16261.94;;;-139.71;74.62
3598;BME280;1813;52.016;8.714;2022-11-23T01:29:37;-16261.94;;;-139.71;74.97
3598;BME280;1813;52.016;8.714;2022-11-23T01:32:11;-16261.94;;;-139.71;75.40
3598;BME280;1813;52.016;8.714;2022-11-23T01:34:48;-16261.94;;;-139.71;75.67
3598;BME280;1813;52.016;8.714;2022-11-23T01:37:21;-16261.94;;;-139.71;75.89
3598;BME280;1813;52.016;8.714;2022-11-23T01:39:56;-16261.94;;;-139.71;76.08
3598;BME280;1813;52.016;8.714;2022-11-23T01:42:46;-16261.94;;;-139.71;76.25
3598;BME280;1813;52.016;8.714;2022-11-23T01:45:38;-16261.94;;;-139.71;76.46
3598;BME280;1813;52.016;8.714;2022-11-23T01:48:16;-16261.94;;;-139.71;76.63
3598;BME280;1813;52.016;8.714;2022-11-23T01:50:55;-16261.94;;;-139.71;76.62
3598;BME280;1813;52.016;8.714;2022-11-23T01:53:31;-16261.94;;;-139.71;76.51
3598;BME280;1813;52.016;8.714;2022-11-23T01:56:07;-16261.94;;;-139.71;76.47
3598;BME280;1813;52.016;8.714;2022-11-23T01:58:47;-16261.94;;;-139.71;76.45
3598;BME280;1813;52.016;8.714;2022-11-23T02:01:24;-16261.94;;;-139.71;76.45
3598;BME280;1813;52.016;8.714;2022-11-23T02:04:00;-16261.94;;;-139.71;76.32
3598;BME280;1813;52.016;8.714;2022-11-23T02:06:39;-16261.94;;;-139.71;76.08
3598;BME280;1813;52.016;8.714;2022-11-23T02:09:13;-16261.94;;;-139.71;76.02
3598;BME280;1813;52.016;8.714;2022-11-23T02:11:48;-16261.94;;;-139.71;75.89
3598;BME280;1813;52.016;8.714;2022-11-23T02:14:22;-16261.94;;;-139.71;75.64
3598;BME280;1813;52.016;8.714;2022-11-23T02:16:58;-16261.94;;;-139.71;75.61
3598;BME280;1813;52.016;8.714;2022-11-23T02:19:37;-16261.94;;;-139.71;75.28
3598;BME280;1813;52.016;8.714;2022-11-23T02:22:21;-16261.94;;;-139.71;75.04
3598;BME280;1813;52.016;8.714;2022-11-23T02:24:59;-16261.94;;;-139.71;75.04
3598;BME280;1813;52.016;8.714;2022-11-23T02:27:36;-16261.94;;;-139.71;74.91
3598;BME280;1813;52.016;8.714;2022-11-23T02:30:11;-16261.94;;;-139.71;74.92
3598;BME280;1813;52.016;8.714;2022-11-23T02:32:45;-16261.94;;;-139.71;74.71
3598;BME280;1813;52.016;8.714;2022-11-23T02:35:21;-16261.94;;;-139.71;74.82
3598;BME280;1813;52.016;8.714;2022-11-23T02:37:55;-16261.94;;;-139.71;74.63
3598;BME280;1813;52.016;8.714;2022-11-23T02:40:33;-16261.94;;;-139.71;74.45
3598;BME280;1813;52.016;8.714;2022-11-23T02:43:09;-16261.94;;;-139.71;74.38
3598;BME280;1813;52.016;8.714;2022-11-23T02:45:48;-16261.94;;;-139.71;74.06
3598;BME280;1813;52.016;8.714;2022-11-23T02:48:23;-16261.94;;;-139.71;74.18
3598;BME280;1813;52.016;8.714;2022-11-23T02:50:56;-16261.94;;;-139.71;73.96
3598;BME280;1813;52.016;8.714;2022-11-23T02:53:30;-16261.94;;;-139.71;73.96
3598;BME280;1813;52.016;8.714;2022-11-23T02:56:04;-16261.94;;;-139.71;73.71
3598;BME280;1813;52.016;8.714;2022-11-23T02:58:40;-16261.94;;;-139.71;73.58
3598;BME280;1813;52.016;8.714;2022-11-23T03:01:14;-16261.94;;;-139.71;73.61
3598;BME280;1813;52.016;8.714;2022-11-23T03:03:50;-16261.94;;;-139.71;73.43
3598;BME280;1813;52.016;8.714;2022-11-23T03:06:24;-16261.94;;;-139.71;73.51
3598;BME280;1813;52.016;8.714;2022-11-23T03:08:58;-16261.94;;;-139.71;73.34
3598;BME280;1813;52.016;8.714;2022-11-23T03:11:32;-16261.94;;;-139.71;73.33
3598;BME280;1813;52.016;8.714;2022-11-23T03:14:09;-16261.94;;;-139.71;73.38
3598;BME280;1813;52.016;8.714;2022-11-23T03:16:51;-16261.94;;;-139.71;73.35
3598;BME280;1813;52.016;8.714;2022-11-23T03:19:24;-16261.94;;;-139.71;73.31
3598;BME280;1813;52.016;8.714;2022-11-23T03:21:58;-16261.94;;;-139.71;73.34
3598;BME280;1813;52.016;8.714;2022-11-23T03:24:35;-16261.94;;;-139.71;73.20
3598;BME280;1813;52.016;8.714;2022-11-23T03:27:11;-16261.94;;;-139.71;73.27
3598;BME280;1813;52.016;8.714;2022-11-23T03:29:48;-16261.94;;;-139.71;73.24
3598;BME280;1813;52.016;8.714;2022-11-23T03:32:24;-16261.94;;;-139.71;73.19
3598;BME280;1813;52.016;8.714;2022-11-23T03:34:58;-16261.94;;;-139.71;73.19
3598;BME280;1813;52.016;8.714;2022-11-23T03:37:33;-16261.94;;;-139.71;73.21
3598;BME280;1813;52.016;8.714;2022-11-23T03:40:09;-16261.94;;;-139.71;73.31
3598;BME280;1813;52.016;8.714;2022-11-23T03:43:06;-16261.94;;;-139.71;73.33
3598;BME280;1813;52.016;8.714;2022-11-23T03:45:42;-16261.94;;;-139.71;73.22
3598;BME280;1813;52.016;8.714;2022-11-23T03:48:16;-16261.94;;;-139.71;73.17
3598;BME280;1813;52.016;8.714;2022-11-23T03:50:50;-16261.94;;;-139.71;73.16
3598;BME280;1813;52.016;8.714;2022-11-23T03:53:24;-16261.94;;;-139.71;73.27
3598;BME280;1813;52.016;8.714;2022-11-23T03:55:58;-16261.94;;;-139.71;73.27
3598;BME280;1813;52.016;8.714;2022-11-23T03:58:36;-16261.94;;;-139.71;73.47
3598;BME280;1813;52.016;8.714;2022-11-23T04:01:16;-16261.94;;;-139.71;73.64
3598;BME280;1813;52.016;8.714;2022-11-23T04:03:54;-16261.94;;;-139.71;73.85
3598;BME280;1813;52.016;8.714;2022-11-23T04:06:48;-16261.94;;;-139.71;74.03
3598;BME280;1813;52.016;8.714;2022-11-23T04:09:26;-16261.94;;;-139.71;74.20
3598;BME280;1813;52.016;8.714;2022-11-23T04:12:09;-16261.94;;;-139.71;74.33
3598;BME280;1813;52.016;8.714;2022-11-23T04:14:44;-16261.94;;;-139.71;74.46
3598;BME280;1813;52.016;8.714;2022-11-23T04:17:20;-16261.94;;;-139.71;74.63
3598;BME280;1813;52.016;8.714;2022-11-23T04:19:54;-16261.94;;;-139.71;74.86
3598;BME280;1813;52.016;8.714;2022-11-23T04:22:28;-16261.94;;;-139.71;75.35
3598;BME280;1813;52.016;8.714;2022-11-23T04:25:02;-16261.94;;;-139.71;75.78
3598;BME280;1813;52.016;8.714;2022-11-23T04:27:36;-16261.94;;;-139.71;76.03
3598;BME280;1813;52.016;8.714;2022-11-23T04:30:11;-16261.94;;;-139.71;76.48
3598;BME280;1813;52.016;8.714;2022-11-23T04:32:47;-16261.94;;;-139.71;76.77
3598;BME280;1813;52.016;8.714;2022-11-23T04:35:21;-16261.94;;;-139.71;76.90
3598;BME280;1813;52.016;8.714;2022-11-23T04:37:56;-16261.94;;;-139.71;77.19
3598;BME280;1813;52.016;8.714;2022-11-23T04:40:33;-16261.94;;;-139.71;77.25
3598;BME280;1813;52.016;8.714;2022-11-23T04:43:08;-16261.94;;;-139.71;77.24
3598;BME280;1813;52.016;8.714;2022-11-23T04:45:43;-16261.94;;;-139.71;77.41
3598;BME280;1813;52.016;8.714;2022-11-23T04:48:29;-16261.94;;;-139.71;77.24
3598;BME280;1813;52.016;8.714;2022-11-23T04:51:03;-16261.94;;;-139.71;77.15
3598;BME280;1813;52.016;8.714;2022-11-23T04:53:41;-16261.94;;;-139.71;77.07
3598;BME280;1813;52.016;8.714;2022-11-23T04:56:15;-16261.94;;;-139.71;76.92
3598;BME280;1813;52.016;8.714;2022-11-23T04:58:50;-16261.94;;;-139.71;76.60
3598;BME280;1813;52.016;8.714;2022-11-23T05:01:24;-16261.94;;;-139.71;76.47
3598;BME280;1813;52.016;8.714;2022-11-23T05:04:21;-16261.94;;;-139.71;76.30
3598;BME280;1813;52.016;8.714;2022-11-23T05:06:55;-16261.94;;;-139.71;76.31
3598;BME280;1813;52.016;8.714;2022-11-23T05:09:28;-16261.94;;;-139.71;76.32
3598;BME280;1813;52.016;8.714;2022-11-23T05:12:13;-16261.94;;;-139.71;76.01
3598;BME280;1813;52.016;8.714;2022-11-23T05:14:48;-16261.94;;;-139.71;75.95
3598;BME280;1813;52.016;8.714;2022-11-23T05:17:29;-16261.94;;;-139.71;76.03
3598;BME280;1813;52.016;8.714;2022-11-23T05:20:08;-16261.94;;;-139.71;76.23
3598;BME280;1813;52.016;8.714;2022-11-23T05:22:47;-16261.94;;;-139.71;76.26
3598;BME280;1813;52.016;8.714;2022-11-23T05:25:25;-16261.94;;;-139.71;76.31
3598;BME280;1813;52.016;8.714;2022-11-23T05:28:05;-16261.94;;;-139.71;76.40
3598;BME280;1813;52.016;8.714;2022-11-23T05:30:39;-16261.94;;;-139.71;76.21
3598;BME280;1813;52.016;8.714;2022-11-23T05:33:13;-16261.94;;;-139.71;76.26
3598;BME280;1813;52.016;8.714;2022-11-23T05:35:50;-16261.94;;;-139.71;76.20
3598;BME280;1813;52.016;8.714;2022-11-23T05:38:33;-16261.94;;;-139.71;76.41
3598;BME280;1813;52.016;8.714;2022-11-23T05:41:13;-16261.94;;;-139.71;76.41
3598;BME280;1813;52.016;8.714;2022-11-23T05:43:48;-16261.94;;;-139.71;76.45
3598;BME280;1813;52.016;8.714;2022-11-23T05:46:27;-16261.94;;;-139.71;76.45
3598;BME280;1813;52.016;8.714;2022-11-23T05:49:00;-16261.94;;;-139.71;76.60
3598;BME280;1813;52.016;8.714;2022-11-23T05:51:42;-16261.94;;;-139.71;76.28
3598;BME280;1813;52.016;8.714;2022-11-23T05:54:15;-16261.94;;;-139.71;76.21
3598;BME280;1813;52.016;8.714;2022-11-23T05:56:59;-16261.94;;;-139.71;76.05
3598;BME280;1813;52.016;8.714;2022-11-23T05:59:42;-16261.94;;;-139.71;76.00
3598;BME280;1813;52.016;8.714;2022-11-23T06:02:21;-16261.94;;;-139.71;75.68
3598;BME280;1813;52.016;8.714;2022-11-23T06:04:59;-16261.94;;;-139.71;75.45
3598;BME280;1813;52.016;8.714;2022-11-23T06:07:51;-16261.94;;;-139.71;75.17
3598;BME280;1813;52.016;8.714;2022-11-23T06:10:29;-16261.94;;;-139.71;75.09
3598;BME280;1813;52.016;8.714;2022-11-23T06:13:06;-16261.94;;;-139.71;74.86
3598;BME280;1813;52.016;8.714;2022-11-23T06:15:40;-16261.94;;;-139.71;74.67
3598;BME280;1813;52.016;8.714;2022-11-23T06:18:15;-16261.94;;;-139.71;74.75
3598;BME280;1813;52.016;8.714;2022-11-23T06:20:53;-16261.94;;;-139.71;74.92
3598;BME280;1813;52.016;8.714;2022-11-23T06:23:29;-16261.94;;;-139.71;75.33
3598;BME280;1813;52.016;8.714;2022-11-23T06:26:03;-16261.94;;;-139.71;75.56
3598;BME280;1813;52.016;8.714;2022-11-23T06:28:39;-16261.94;;;-139.71;75.99
3598;BME280;1813;52.016;8.714;2022-11-23T06:31:13;-16261.94;;;-139.71;76.49
3598;BME280;1813;52.016;8.714;2022-11-23T06:33:47;-16261.94;;;-139.71;76.84
3598;BME280;1813;52.016;8.714;2022-11-23T06:36:21;-16261.94;;;-139.71;77.15
3598;BME280;1813;52.016;8.714;2022-11-23T06:38:58;-16261.94;;;-139.71;77.38
3598;BME280;1813;52.016;8.714;2022-11-23T06:41:32;-16261.94;;;-139.71;77.78
3598;BME280;1813;52.016;8.714;2022-11-23T06:44:07;-16261.94;;;-139.71;78.06
3598;BME280;1813;52.016;8.714;2022-11-23T06:46:47;-16261.94;;;-139.71;78.18
3598;BME280;1813;52.016;8.714;2022-11-23T06:49:20;-16261.94;;;-139.71;78.36
3598;BME280;1813;52.016;8.714;2022-11-23T06:52:12;-16261.94;;;-139.71;78.49
3598;BME280;1813;52.016;8.714;2022-11-23T06:54:48;-16261.94;;;-139.71;78.71
3598;BME280;1813;52.016;8.714;2022-11-23T06:57:22;-16261.94;;;-139.71;78.85
3598;BME280;1813;52.016;8.714;2022-11-23T06:59:57;-16261.94;;;-139.71;79.05
3598;BME280;1813;52.016;8.714;2022-11-23T07:02:37;-16261.94;;;-139.71;78.91
3598;BME280;1813;52.016;8.714;2022-11-23T07:05:11;-16261.94;;;-139.71;78.88
3598;BME280;1813;52.016;8.714;2022-11-23T07:07:45;-16261.94;;;-139.71;78.83
3598;BME280;1813;52.016;8.714;2022-11-23T07:10:27;-16261.94;;;-139.71;78.83
3598;BME280;1813;52.016;8.714;2022-11-23T07:13:05;-16261.94;;;-139.71;78.88
3598;BME280;1813;52.016;8.714;2022-11-23T07:15:40;-16261.94;;;-139.71;78.70
3598;BME280;1813;52.016;8.714;2022-11-23T07:18:14;-16261.94;;;-139.71;78.82
3598;BME280;1813;52.016;8.714;2022-11-23T07:20:56;-16261.94;;;-139.71;78.74
3598;BME280;1813;52.016;8.714;2022-11-23T07:23:30;-16261.94;;;-139.71;78.89
3598;BME280;1813;52.016;8.714;2022-11-23T07:26:10;-16261.94;;;-139.71;78.71
3598;BME280;1813;52.016;8.714;2022-11-23T07:28:44;-16261.94;;;-139.71;78.62
3598;BME280;1813;52.016;8.714;2022-11-23T07:31:19;-16261.94;;;-139.71;78.54
3598;BME280;1813;52.016;8.714;2022-11-23T07:33:52;-16261.94;;;-139.71;78.45
3598;BME280;1813;52.016;8.714;2022-11-23T07:36:26;-16261.94;;;-139.71;78.39
3598;BME280;1813;52.016;8.714;2022-11-23T07:39:00;-16261.94;;;-139.71;78.12
3598;BME280;1813;52.016;8.714;2022-11-23T07:41:37;-16261.94;;;-139.71;78.01
3598;BME280;1813;52.016;8.714;2022-11-23T07:44:31;-16261.94;;;-139.71;77.90
3598;BME280;1813;52.016;8.714;2022-11-23T07:47:06;-16261.94;;;-139.71;77.65
3598;BME280;1813;52.016;8.714;2022-11-23T07:49:40;-16261.94;;;-139.71;77.52
3598;BME280;1813;52.016;8.714;2022-11-23T07:52:14;-16261.94;;;-139.71;77.50
3598;BME280;1813;52.016;8.714;2022-11-23T07:54:48;-16261.94;;;-139.71;77.24
3598;BME280;1813;52.016;8.714;2022-11-23T07:57:24;-16261.94;;;-139.71;77.04
3598;BME280;1813;52.016;8.714;2022-11-23T07:59:58;-16261.94;;;-139.71;76.99
3598;BME280;1813;52.016;8.714;2022-11-23T08:02:32;-16261.94;;;-139.71;76.84
3598;BME280;1813;52.016;8.714;2022-11-23T08:05:06;-16261.94;;;-139.71;76.74
3598;BME280;1813;52.016;8.714;2022-11-23T08:07:40;-16261.94;;;-139.71;76.50
3598;BME280;1813;52.016;8.714;2022-11-23T08:10:15;-16261.94;;;-139.71;76.28
3598;BME280;1813;52.016;8.714;2022-11-23T08:12:51;-16261.94;;;-139.71;76.26
3598;BME280;1813;52.016;8.714;2022-11-23T08:15:25;-16261.94;;;-139.71;76.10
3598;BME280;1813;52.016;8.714;2022-11-23T08:18:01;-16261.94;;;-139.71;76.03
3598;BME280;1813;52.016;8.714;2022-11-23T08:20:35;-16261.94;;;-139.71;75.76
3598;BME280;1813;52.016;8.714;2022-11-23T08:23:09;-16261.94;;;-139.71;75.55
3598;BME280;1813;52.016;8.714;2022-11-23T08:25:43;-16261.94;;;-139.71;75.47
3598;BME280;1813;52.016;8.714;2022-11-23T08:28:19;-16261.94;;;-139.71;75.04
3598;BME280;1813;52.016;8.714;2022-11-23T08:30:53;-16261.94;;;-139.71;75.09
3598;BME280;1813;52.016;8.714;2022-11-23T08:33:27;-16261.94;;;-139.71;74.94
3598;BME280;1813;52.016;8.714;2022-11-23T08:36:02;-16261.94;;;-139.71;74.50
3598;BME280;1813;52.016;8.714;2022-11-23T08:38:36;-16261.94;;;-139.71;74.47
3598;BME280;1813;52.016;8.714;2022-11-23T08:41:10;-16261.94;;;-139.71;74.40
3598;BME280;1813;52.016;8.714;2022-11-23T08:43:47;-16261.94;;;-139.71;74.20
3598;BME280;1813;52.016;8.714;2022-11-23T08:46:20;-16261.94;;;-139.71;74.20
3598;BME280;1813;52.016;8.714;2022-11-23T08:48:54;-16261.94;;;-139.71;74.00
3598;BME280;1813;52.016;8.714;2022-11-23T08:51:28;-16261.94;;;-139.71;74.07
3598;BME280;1813;52.016;8.714;2022-11-23T08:54:02;-16261.94;;;-139.71;73.93
3598;BME280;1813;52.016;8.714;2022-11-23T08:56:36;-16261.94;;;-139.71;73.58
3598;BME280;1813;52.016;8.714;2022-11-23T08:59:12;-16261.94;;;-139.71;73.55
3598;BME280;1813;52.016;8.714;2022-11-23T09:01:46;-16261.94;;;-139.71;73.55
3598;BME280;1813;52.016;8.714;2022-11-23T09:04:20;-16261.94;;;-139.71;73.08
3598;BME280;1813;52.016;8.714;2022-11-23T09:06:57;-16261.94;;;-139.71;72.70
3598;BME280;1813;52.016;8.714;2022-11-23T09:09:30;-16261.94;;;-139.71;72.71
3598;BME280;1813;52.016;8.714;2022-11-23T09:12:05;-16261.94;;;-139.71;72.32
3598;BME280;1813;52.016;8.714;2022-11-23T09:14:41;-16261.94;;;-139.71;72.05
3598;BME280;1813;52.016;8.714;2022-11-23T09:17:15;-16261.94;;;-139.71;71.41
3598;BME280;1813;52.016;8.714;2022-11-23T09:19:49;-16261.94;;;-139.71;71.21
3598;BME280;1813;52.016;8.714;2022-11-23T09:22:22;-16261.94;;;-139.71;71.01
3598;BME280;1813;52.016;8.714;2022-11-23T09:24:56;-16261.94;;;-139.71;70.82
3598;BME280;1813;52.016;8.714;2022-11-23T09:27:30;-16261.94;;;-139.71;70.68
3598;BME280;1813;52.016;8.714;2022-11-23T09:30:08;-16261.94;;;-139.71;70.88
3598;BME280;1813;52.016;8.714;2022-11-23T09:32:42;-16261.94;;;-139.71;70.73
3598;BME280;1813;52.016;8.714;2022-11-23T09:35:16;-16261.94;;;-139.71;70.23
3598;BME280;1813;52.016;8.714;2022-11-23T09:37:54;-16261.94;;;-139.71;69.93
3598;BME280;1813;52.016;8.714;2022-11-23T09:40:31;-16261.94;;;-139.71;69.76
3598;BME280;1813;52.016;8.714;2022-11-23T09:43:21;-16261.94;;;-139.71;69.60
3598;BME280;1813;52.016;8.714;2022-11-23T09:46:10;-16261.94;;;-139.71;69.46
3598;BME280;1813;52.016;8.714;2022-11-23T09:49:05;-16261.94;;;-139.71;69.42
3598;BME280;1813;52.016;8.714;2022-11-23T09:51:41;-16261.94;;;-139.71;69.39
3598;BME280;1813;52.016;8.714;2022-11-23T09:54:24;-16261.94;;;-139.71;69.31
3598;BME280;1813;52.016;8.714;2022-11-23T09:57:02;-16261.94;;;-139.71;69.44
3598;BME280;1813;52.016;8.714;2022-11-23T09:59:40;-16261.94;;;-139.71;69.63
3598;BME280;1813;52.016;8.714;2022-11-23T10:02:20;-16261.94;;;-139.71;69.72
3598;BME280;1813;52.016;8.714;2022-11-23T10:04:55;-16261.94;;;-139.71;69.47
3598;BME280;1813;52.016;8.714;2022-11-23T10:07:43;-16261.94;;;-139.71;69.35
3598;BME280;1813;52.016;8.714;2022-11-23T10:10:33;-16261.94;;;-139.71;69.20
3598;BME280;1813;52.016;8.714;2022-11-23T10:13:26;-16261.94;;;-139.71;69.03
3598;BME280;1813;52.016;8.714;2022-11-23T10:16:18;-16261.94;;;-139.71;69.01
3598;BME280;1813;52.016;8.714;2022-11-23T10:19:05;-16261.94;;;-139.71;68.58
3598;BME280;1813;52.016;8.714;2022-11-23T10:21:51;-16261.94;;;-139.71;68.17
3598;BME280;1813;52.016;8.714;2022-11-23T10:24:31;-16261.94;;;-139.71;68.17
3598;BME280;1813;52.016;8.714;2022-11-23T10:27:11;-16261.94;;;-139.71;67.87
3598;BME280;1813;52.016;8.714;2022-11-23T10:29:47;-16261.94;;;-139.71;66.11
3598;BME280;1813;52.016;8.714;2022-11-23T10:32:27;-16261.94;;;-139.71;65.11
3598;BME280;1813;52.016;8.714;2022-11-23T10:35:11;-16261.94;;;-139.71;64.45
3598;BME280;1813;52.016;8.714;2022-11-23T10:37:45;-16261.94;;;-139.71;64.87
3598;BME280;1813;52.016;8.714;2022-11-23T10:40:23;-16261.94;;;-139.71;64.04
3598;BME280;1813;52.016;8.714;2022-11-23T10:43:00;-16261.94;;;-139.71;63.54
3598;BME280;1813;52.016;8.714;2022-11-23T10:45:35;-16261.94;;;-139.71;63.53
3598;BME280;1813;52.016;8.714;2022-11-23T10:48:09;-16261.94;;;-139.71;63.21
3598;BME280;1813;52.016;8.714;2022-11-23T10:50:45;-16261.94;;;-139.71;62.93
3598;BME280;1813;52.016;8.714;2022-11-23T10:53:21;-16261.94;;;-139.71;61.50
3598;BME280;1813;52.016;8.714;2022-11-23T10:55:58;-16261.94;;;-139.71;61.10
3598;BME280;1813;52.016;8.714;2022-11-23T10:58:42;-16261.94;;;-139.71;60.71
3598;BME280;1813;52.016;8.714;2022-11-23T11:01:19;-16261.94;;;-139.71;60.70
3598;BME280;1813;52.016;8.714;2022-11-23T11:03:56;-16261.94;;;-139.71;58.97
3598;BME280;1813;52.016;8.714;2022-11-23T11:06:36;-16261.94;;;-139.71;59.43
3598;BME280;1813;52.016;8.714;2022-11-23T11:09:18;-16261.94;;;-139.71;59.86
3598;BME280;1813;52.016;8.714;2022-11-23T11:11:53;-16261.94;;;-139.71;58.58
3598;BME280;1813;52.016;8.714;2022-11-23T11:14:27;-16261.94;;;-139.71;57.72
3598;BME280;1813;52.016;8.714;2022-11-23T11:17:01;-16261.94;;;-139.71;58.04
3598;BME280;1813;52.016;8.714;2022-11-23T11:19:35;-16261.94;;;-139.71;57.81
3598;BME280;1813;52.016;8.714;2022-11-23T11:22:32;-16261.94;;;-139.71;56.71
3598;BME280;1813;52.016;8.714;2022-11-23T11:25:26;-16261.94;;;-139.71;56.18
3598;BME280;1813;52.016;8.714;2022-11-23T11:28:02;-16261.94;;;-139.71;54.00
3598;BME280;1813;52.016;8.714;2022-11-23T11:30:45;-16261.94;;;-139.71;52.48
3598;BME280;1813;52.016;8.714;2022-11-23T11:33:30;-16261.94;;;-139.71;49.74
3598;BME280;1813;52.016;8.714;2022-11-23T11:36:07;-16261.94;;;-139.71;48.55
3598;BME280;1813;52.016;8.714;2022-11-23T11:38:49;-16261.94;;;-139.71;47.65
3598;BME280;1813;52.016;8.714;2022-11-23T11:41:24;-16261.94;;;-139.71;47.56
3598;BME280;1813;52.016;8.714;2022-11-23T11:44:03;-16261.94;;;-139.71;48.65
3598;BME280;1813;52.016;8.714;2022-11-23T11:46:44;-16261.94;;;-139.71;48.43
3598;BME280;1813;52.016;8.714;2022-11-23T11:49:23;-16261.94;;;-139.71;48.97
3598;BME280;1813;52.016;8.714;2022-11-23T11:52:04;-16261.94;;;-139.71;50.56
3598;BME280;1813;52.016;8.714;2022-11-23T11:54:45;-16261.94;;;-139.71;49.57
3598;BME280;1813;52.016;8.714;2022-11-23T11:57:26;-16261.94;;;-139.71;48.97
3598;BME280;1813;52.016;8.714;2022-11-23T12:00:09;-16261.94;;;-139.71;48.63
3598;BME280;1813;52.016;8.714;2022-11-23T12:02:54;-16261.94;;;-139.71;48.42
3598;BME280;1813;52.016;8.714;2022-11-23T12:05:36;-16261.94;;;-139.71;47.94
3598;BME280;1813;52.016;8.714;2022-11-23T12:08:16;-16261.94;;;-139.71;46.86
3598;BME280;1813;52.016;8.714;2022-11-23T12:10:55;-16261.94;;;-139.71;46.09
3598;BME280;1813;52.016;8.714;2022-11-23T12:13:33;-16261.94;;;-139.71;45.24
3598;BME280;1813;52.016;8.714;2022-11-23T12:16:15;-16261.94;;;-139.71;45.97
3598;BME280;1813;52.016;8.714;2022-11-23T12:19:12;-16261.94;;;-139.71;45.69
3598;BME280;1813;52.016;8.714;2022-11-23T12:22:11;-16261.94;;;-139.71;46.30
3598;BME280;1813;52.016;8.714;2022-11-23T12:25:19;-16261.94;;;-139.71;46.45
3598;BME280;1813;52.016;8.714;2022-11-23T12:28:08;-16261.94;;;-139.71;46.27
3598;BME280;1813;52.016;8.714;2022-11-23T12:30:59;-16261.94;;;-139.71;46.32
3598;BME280;1813;52.016;8.714;2022-11-23T12:33:54;-16261.94;;;-139.71;47.42
3598;BME280;1813;52.016;8.714;2022-11-23T12:36:42;-16261.94;;;-139.71;47.35
3598;BME280;1813;52.016;8.714;2022-11-23T12:39:32;-16261.94;;;-139.71;46.22
3598;BME280;1813;52.016;8.714;2022-11-23T12:42:10;-16261.94;;;-139.71;43.63
3598;BME280;1813;52.016;8.714;2022-11-23T12:44:57;-16261.94;;;-139.71;43.06
3598;BME280;1813;52.016;8.714;2022-11-23T12:47:42;-16261.94;;;-139.71;42.83
3598;BME280;1813;52.016;8.714;2022-11-23T12:50:25;-16261.94;;;-139.71;43.23
3598;BME280;1813;52.016;8.714;2022-11-23T12:53:10;-16261.94;;;-139.71;43.84
3598;BME280;1813;52.016;8.714;2022-11-23T12:55:52;-16261.94;;;-139.71;43.94
3598;BME280;1813;52.016;8.714;2022-11-23T12:58:30;-16261.94;;;-139.71;44.15
3598;BME280;1813;52.016;8.714;2022-11-23T13:01:11;-16261.94;;;-139.71;43.87
3598;BME280;1813;52.016;8.714;2022-11-23T13:07:37;-16261.94;;;-139.71;44.86
3598;BME280;1813;52.016;8.714;2022-11-23T13:10:44;-16261.94;;;-139.71;45.30
3598;BME280;1813;52.016;8.714;2022-11-23T13:13:28;-16261.94;;;-139.71;45.99
3598;BME280;1813;52.016;8.714;2022-11-23T13:19:40;-16261.94;;;-139.71;47.15
3598;BME280;1813;52.016;8.714;2022-11-23T13:22:23;-16261.94;;;-139.71;47.01
3598;BME280;1813;52.016;8.714;2022-11-23T13:25:01;-16261.94;;;-139.71;46.72
3598;BME280;1813;52.016;8.714;2022-11-23T13:27:57;-16261.94;;;-139.71;46.32
3598;BME280;1813;52.016;8.714;2022-11-23T13:30:33;-16261.94;;;-139.71;45.74
3598;BME280;1813;52.016;8.714;2022-11-23T13:33:23;-16261.94;;;-139.71;45.67
3598;BME280;1813;52.016;8.714;2022-11-23T13:36:00;-16261.94;;;-139.71;45.98
3598;BME280;1813;52.016;8.714;2022-11-23T13:38:42;-16261.94;;;-139.71;46.05
3598;BME280;1813;52.016;8.714;2022-11-23T13:44:29;-16261.94;;;-139.71;46.15
3598;BME280;1813;52.016;8.714;2022-11-23T13:47:18;-16261.94;;;-139.71;45.83
3598;BME280;1813;52.016;8.714;2022-11-23T13:50:08;-16261.94;;;-139.71;46.34
3598;BME280;1813;52.016;8.714;2022-11-23T13:52:50;-16261.94;;;-139.71;46.69
3598;BME280;1813;52.016;8.714;2022-11-23T13:55:32;-16261.94;;;-139.71;46.97
3598;BME280;1813;52.016;8.714;2022-11-23T13:58:35;-16261.94;;;-139.71;47.55